Time;durP1;ratioP1;P1;durP2;ratioP2;P2;SDS_P1;SDS_P2;PMS_P1;PMS_P2;Temp;Humidity;BMP_temperature;BMP_pressure;BME280_temperature;BME280_humidity;BME280_pressure;Samples;Min_cycle;Max_cycle;Signal;HPM_P1;HPM_P2
2022/06/26 00:00:15;;;;;;;;;;;;;;;-142.75;100.00;76401.00;4969777;28;19918;-69
2022/06/26 00:02:40;;;;;;;;;;;;;;;-142.75;100.00;76399.03;4971611;28;19975;-69
2022/06/26 00:05:07;;;;;;;;;;;;;;;-142.75;100.00;76402.97;4970366;28;20392;-68
2022/06/26 00:07:32;;;;;;;;;;;;;;;-142.75;100.00;76416.75;4961147;28;20533;-69
2022/06/26 00:09:57;;;;;;;;;;;;;;;-142.75;100.00;76410.84;4950896;28;19914;-68
2022/06/26 00:12:23;;;;;;;;;;;;;;;-142.75;100.00;76416.75;4952270;28;19919;-68
2022/06/26 00:14:48;;;;;;;;;;;;;;;-142.75;100.00;76424.63;4952287;28;20021;-68
2022/06/26 00:17:13;;;;;;;;;;;;;;;-142.75;100.00;76434.47;4950728;28;20337;-68
2022/06/26 00:19:38;;;;;;;;;;;;;;;-142.75;100.00;76440.38;4951850;29;19984;-69
2022/06/26 00:22:05;;;;;;;;;;;;;;;-142.75;100.00;76440.38;4952132;28;20292;-69
2022/06/26 00:24:32;;;;;;;;;;;;;;;-142.75;100.00;76442.34;4950877;28;20000;-69
2022/06/26 00:26:57;;;;;;;;;;;;;;;-142.75;100.00;76452.19;4952033;28;19914;-69
2022/06/26 00:29:22;;;;;;;;;;;;;;;-142.75;100.00;76450.22;4951798;28;20300;-68
2022/06/26 00:31:47;;;;;;;;;;;;;;;-142.75;100.00;76458.09;4951912;28;20304;-69
2022/06/26 00:34:12;;;;;;;;;;;;;;;-142.75;100.00;76458.09;4951944;28;19918;-69
2022/06/26 00:36:38;;;;;;;;;;;;;;;-142.75;100.00;76464.00;4951751;28;20289;-69
2022/06/26 00:39:03;;;;;;;;;;;;;;;-142.75;100.00;76467.94;4951629;28;19918;-69
2022/06/26 00:41:28;;;;;;;;;;;;;;;-142.75;100.00;76467.94;4950629;28;20361;-69
2022/06/26 00:43:53;;;;;;;;;;;;;;;-142.75;100.00;76465.97;4950602;28;19914;-68
2022/06/26 00:46:18;;;;;;;;;;;;;;;-142.75;100.00;76479.75;4950358;28;20292;-68
2022/06/26 00:48:44;;;;;;;;;;;;;;;-142.75;100.00;76487.63;4951447;28;19953;-69
2022/06/26 00:51:09;;;;;;;;;;;;;;;-142.75;100.00;76487.63;4951722;28;20009;-68
2022/06/26 00:53:34;;;;;;;;;;;;;;;-142.75;100.00;76487.63;4951313;28;19937;-68
2022/06/26 00:56:00;;;;;;;;;;;;;;;-142.75;100.00;76495.50;4951655;28;19941;-69
2022/06/26 00:58:25;;;;;;;;;;;;;;;-142.75;100.00;76487.63;4951203;28;19923;-69
2022/06/26 01:00:51;;;;;;;;;;;;;;;-142.75;100.00;76491.56;4951595;28;20281;-68
2022/06/26 01:03:16;;;;;;;;;;;;;;;-142.75;100.00;76505.34;4950258;28;19919;-69
2022/06/26 01:05:41;;;;;;;;;;;;;;;-142.75;100.00;76491.56;4951523;28;19921;-69
2022/06/26 01:08:07;;;;;;;;;;;;;;;-142.75;100.00;76491.56;4951185;28;20295;-69
2022/06/26 01:10:32;;;;;;;;;;;;;;;-142.75;100.00;76499.44;4951566;28;19917;-69
2022/06/26 01:12:59;;;;;;;;;;;;;;;-142.75;100.00;76487.63;4951536;28;19910;-69
2022/06/26 01:15:24;;;;;;;;;;;;;;;-142.75;100.00;76485.66;4950161;28;19911;-68
2022/06/26 01:17:49;;;;;;;;;;;;;;;-142.75;100.00;76499.44;4949905;28;19968;-68
2022/06/26 01:20:15;;;;;;;;;;;;;;;-142.75;100.00;76499.44;4951393;28;19911;-68
2022/06/26 01:22:40;;;;;;;;;;;;;;;-142.75;100.00;76503.38;4951765;28;19910;-67
2022/06/26 01:25:05;;;;;;;;;;;;;;;-142.75;100.00;76499.44;4950217;28;19910;-67
2022/06/26 01:27:38;;;;;;;;;;;;;;;-142.75;100.00;76503.38;4951303;28;19911;-69
2022/06/26 01:30:04;;;;;;;;;;;;;;;-142.75;100.00;76509.28;4950792;28;19914;-69
2022/06/26 01:32:30;;;;;;;;;;;;;;;-142.75;100.00;76509.28;4951338;28;19984;-69
2022/06/26 01:34:55;;;;;;;;;;;;;;;-142.75;100.00;76507.31;4950053;28;19910;-69
2022/06/26 01:37:20;;;;;;;;;;;;;;;-142.75;100.00;76509.28;4951052;28;19914;-69
2022/06/26 01:39:46;;;;;;;;;;;;;;;-142.75;100.00;76525.03;4950918;28;19942;-69
2022/06/26 01:42:11;;;;;;;;;;;;;;;-142.75;100.00;76527.00;4951189;28;19956;-69
2022/06/26 01:44:36;;;;;;;;;;;;;;;-142.75;100.00;76519.13;4951120;28;19910;-69
2022/06/26 01:47:01;;;;;;;;;;;;;;;-142.75;100.00;76523.06;4951007;28;19918;-69
2022/06/26 01:49:27;;;;;;;;;;;;;;;-142.75;100.00;76519.13;4950793;28;19950;-69
2022/06/26 01:51:52;;;;;;;;;;;;;;;-142.75;100.00;76536.84;4951042;28;19911;-69
2022/06/26 01:54:18;;;;;;;;;;;;;;;-142.75;100.00;76536.84;4951057;28;19911;-69
2022/06/26 01:56:44;;;;;;;;;;;;;;;-142.75;100.00;76534.84;4950785;28;20399;-69
2022/06/26 01:59:09;;;;;;;;;;;;;;;-142.75;100.00;76542.72;4950680;29;19910;-69
2022/06/26 02:01:34;;;;;;;;;;;;;;;-142.75;100.00;76542.72;4950903;28;19953;-69
2022/06/26 02:03:59;;;;;;;;;;;;;;;-142.75;100.00;76546.66;4950851;28;19911;-69
2022/06/26 02:06:24;;;;;;;;;;;;;;;-142.75;100.00;76550.59;4953775;28;20324;-70
2022/06/26 02:08:50;;;;;;;;;;;;;;;-142.75;100.00;76548.63;4952672;28;19911;-69
2022/06/26 02:13:58;;;;;;;;;;;;;;;-142.75;100.00;76554.53;4954379;28;19921;-69
2022/06/26 02:16:26;;;;;;;;;;;;;;;-142.75;100.00;76548.63;4952690;28;20005;-69
2022/06/26 02:18:52;;;;;;;;;;;;;;;-142.75;100.00;76546.66;4952491;28;20440;-69
2022/06/26 02:21:19;;;;;;;;;;;;;;;-142.75;100.00;76546.66;4952841;28;19910;-69
2022/06/26 02:23:45;;;;;;;;;;;;;;;-142.75;100.00;76542.72;4953997;28;19915;-69
2022/06/26 02:26:10;;;;;;;;;;;;;;;-142.75;100.00;76536.84;4952734;28;20465;-70
2022/06/26 02:28:36;;;;;;;;;;;;;;;-142.75;100.00;76534.84;4953428;28;19915;-69
2022/06/26 02:31:01;;;;;;;;;;;;;;;-142.75;100.00;76534.84;4954107;28;19972;-70
2022/06/26 02:33:28;;;;;;;;;;;;;;;-142.75;100.00;76540.75;4952536;28;19965;-70
2022/06/26 02:35:55;;;;;;;;;;;;;;;-142.75;100.00;76546.66;4953790;28;20431;-69
2022/06/26 02:38:21;;;;;;;;;;;;;;;-142.75;100.00;76548.63;4953456;28;19933;-69
2022/06/26 02:40:46;;;;;;;;;;;;;;;-142.75;100.00;76550.59;4952494;28;19910;-69
2022/06/26 02:43:11;;;;;;;;;;;;;;;-142.75;100.00;76546.66;4952408;28;19911;-69
2022/06/26 02:45:36;;;;;;;;;;;;;;;-142.75;100.00;76548.63;4953681;28;19976;-69
2022/06/26 02:48:02;;;;;;;;;;;;;;;-142.75;100.00;76554.53;4951958;28;19910;-69
2022/06/26 02:50:27;;;;;;;;;;;;;;;-142.75;100.00;76560.44;4953642;28;19997;-69
2022/06/26 02:52:52;;;;;;;;;;;;;;;-142.75;100.00;76562.41;4953510;28;19914;-69
2022/06/26 02:55:18;;;;;;;;;;;;;;;-142.75;100.00;76558.47;4953531;28;19910;-69
2022/06/26 02:57:43;;;;;;;;;;;;;;;-142.75;100.00;76564.38;4952985;28;19926;-67
2022/06/26 03:00:09;;;;;;;;;;;;;;;-142.75;100.00;76576.19;4953316;28;19914;-69
2022/06/26 03:02:34;;;;;;;;;;;;;;;-142.75;100.00;76574.22;4953384;28;19911;-69
2022/06/26 03:05:00;;;;;;;;;;;;;;;-142.75;100.00;76576.19;4952106;28;19917;-69
2022/06/26 03:07:25;;;;;;;;;;;;;;;-142.75;100.00;76582.09;4953422;28;19949;-69
2022/06/26 03:09:50;;;;;;;;;;;;;;;-142.75;100.00;76597.84;4953012;28;19914;-69
2022/06/26 03:12:15;;;;;;;;;;;;;;;-142.75;100.00;76603.75;4951985;28;20063;-69
2022/06/26 03:14:41;;;;;;;;;;;;;;;-142.75;100.00;76601.78;4953228;28;20425;-69
2022/06/26 03:17:06;;;;;;;;;;;;;;;-142.75;100.00;76605.72;4952683;28;19914;-70
2022/06/26 03:19:32;;;;;;;;;;;;;;;-142.75;100.00;76619.50;4951605;28;20368;-69
2022/06/26 03:21:57;;;;;;;;;;;;;;;-142.75;100.00;76631.31;4953160;28;19936;-69
2022/06/26 03:24:22;;;;;;;;;;;;;;;-142.75;100.00;76631.31;4953092;28;19915;-69
2022/06/26 03:26:47;;;;;;;;;;;;;;;-142.75;100.00;76631.31;4951736;28;20001;-69
2022/06/26 03:29:13;;;;;;;;;;;;;;;-142.75;100.00;76631.31;4952747;28;19922;-69
2022/06/26 03:31:38;;;;;;;;;;;;;;;-142.75;100.00;76633.28;4952951;29;19936;-69
2022/06/26 03:34:04;;;;;;;;;;;;;;;-142.75;100.00;76643.13;4952974;28;20029;-69
2022/06/26 03:36:29;;;;;;;;;;;;;;;-142.75;100.00;76645.09;4952779;28;19922;-69
2022/06/26 03:38:55;;;;;;;;;;;;;;;-142.75;100.00;76652.97;4952643;28;19910;-68
2022/06/26 03:41:20;;;;;;;;;;;;;;;-142.75;100.00;76654.94;4951548;28;19910;-69
2022/06/26 03:43:46;;;;;;;;;;;;;;;-142.75;100.00;76660.84;4953000;28;20433;-69
2022/06/26 03:46:11;;;;;;;;;;;;;;;-142.75;100.00;76668.72;4952706;28;19914;-70
2022/06/26 03:48:36;;;;;;;;;;;;;;;-142.75;100.00;76678.56;4952435;28;19942;-69
2022/06/26 03:51:02;;;;;;;;;;;;;;;-142.75;100.00;76692.34;4952704;28;19962;-68
2022/06/26 03:53:27;;;;;;;;;;;;;;;-142.75;100.00;76692.34;4952651;28;19911;-69
2022/06/26 03:55:52;;;;;;;;;;;;;;;-142.75;100.00;76696.28;4952503;28;19918;-70
2022/06/26 03:58:17;;;;;;;;;;;;;;;-142.75;100.00;76692.34;4952117;28;19944;-69
2022/06/26 04:00:43;;;;;;;;;;;;;;;-142.75;100.00;76688.41;4952451;28;19959;-69
2022/06/26 04:03:08;;;;;;;;;;;;;;;-142.75;100.00;76698.25;4951290;28;20042;-69
2022/06/26 04:05:34;;;;;;;;;;;;;;;-142.75;100.00;76712.03;4952470;28;20390;-69
2022/06/26 04:07:59;;;;;;;;;;;;;;;-142.75;100.00;76704.16;4952133;28;19911;-68
2022/06/26 04:10:24;;;;;;;;;;;;;;;-142.75;100.00;76710.06;4952387;28;19910;-69
2022/06/26 04:12:50;;;;;;;;;;;;;;;-142.75;100.00;76706.13;4952843;28;19910;-69
2022/06/26 04:15:15;;;;;;;;;;;;;;;-142.75;100.00;76706.13;4952281;28;19945;-69
2022/06/26 04:17:40;;;;;;;;;;;;;;;-142.75;100.00;76708.09;4952234;28;20279;-69
2022/06/26 04:20:06;;;;;;;;;;;;;;;-142.75;100.00;76715.97;4951987;28;20359;-69
2022/06/26 04:22:31;;;;;;;;;;;;;;;-142.75;100.00;76712.03;4952263;28;19910;-69
2022/06/26 04:24:56;;;;;;;;;;;;;;;-142.75;100.00;76702.19;4952146;28;20001;-69
2022/06/26 04:27:22;;;;;;;;;;;;;;;-142.75;100.00;76710.06;4951278;28;19979;-68
2022/06/26 04:29:47;;;;;;;;;;;;;;;-142.75;100.00;76719.91;4950516;28;19964;-68
2022/06/26 04:32:12;;;;;;;;;;;;;;;-142.75;100.00;76706.13;4950875;28;19921;-69
2022/06/26 04:34:37;;;;;;;;;;;;;;;-142.75;100.00;76704.16;4952029;28;19972;-69
2022/06/26 04:37:04;;;;;;;;;;;;;;;-142.75;100.00;76704.16;4951878;28;20013;-68
2022/06/26 04:39:29;;;;;;;;;;;;;;;-142.75;100.00;76692.34;4950473;28;19917;-68
2022/06/26 04:41:54;;;;;;;;;;;;;;;-142.75;100.00;76698.25;4950678;28;20285;-68
2022/06/26 04:44:20;;;;;;;;;;;;;;;-142.75;100.00;76698.25;4951864;28;19910;-69
2022/06/26 04:46:46;;;;;;;;;;;;;;;-142.75;100.00;76708.09;4951816;28;20011;-69
2022/06/26 04:49:11;;;;;;;;;;;;;;;-142.75;100.00;76700.22;4951575;28;20328;-69
2022/06/26 04:51:37;;;;;;;;;;;;;;;-142.75;100.00;76688.41;4951822;28;19946;-69
2022/06/26 04:54:03;;;;;;;;;;;;;;;-142.75;100.00;76692.34;4950820;28;19980;-69
2022/06/26 04:56:28;;;;;;;;;;;;;;;-142.75;100.00;76692.34;4950144;28;19915;-69
2022/06/26 04:58:54;;;;;;;;;;;;;;;-142.75;100.00;76692.34;4951453;28;19910;-68
2022/06/26 05:01:19;;;;;;;;;;;;;;;-142.75;100.00;76698.25;4951698;28;19964;-69
2022/06/26 05:03:44;;;;;;;;;;;;;;;-142.75;100.00;76694.31;4951660;28;19968;-69
2022/06/26 05:06:09;;;;;;;;;;;;;;;-142.75;100.00;76692.34;4951617;28;19964;-69
2022/06/26 05:08:34;;;;;;;;;;;;;;;-142.75;100.00;76682.50;4951240;28;19910;-69
2022/06/26 05:11:00;;;;;;;;;;;;;;;-142.75;100.00;76674.63;4951476;28;19996;-68
2022/06/26 05:13:25;;;;;;;;;;;;;;;-142.75;100.00;76662.81;4951461;28;19957;-69
2022/06/26 05:15:50;;;;;;;;;;;;;;;-142.75;100.00;76658.88;4951442;28;19925;-69
2022/06/26 05:18:15;;;;;;;;;;;;;;;-142.75;100.00;76662.81;4951149;28;20326;-69
2022/06/26 05:20:40;;;;;;;;;;;;;;;-142.75;100.00;76631.31;4951510;28;20013;-69
2022/06/26 05:23:07;;;;;;;;;;;;;;;-142.75;100.00;76627.38;4951456;28;19914;-69
2022/06/26 05:25:33;;;;;;;;;;;;;;;-142.75;100.00;76635.25;4951307;28;19936;-68
2022/06/26 05:27:58;;;;;;;;;;;;;;;-142.75;100.00;76623.44;4951030;28;19911;-68
2022/06/26 05:30:24;;;;;;;;;;;;;;;-142.75;100.00;76611.63;4951399;28;19914;-69
2022/06/26 05:32:49;;;;;;;;;;;;;;;-142.75;100.00;76613.59;4951356;28;19917;-69
2022/06/26 05:35:14;;;;;;;;;;;;;;;-142.75;100.00;76605.72;4950038;28;19917;-69
2022/06/26 05:37:39;;;;;;;;;;;;;;;-142.75;100.00;76597.84;4951085;28;19921;-69
2022/06/26 05:40:05;;;;;;;;;;;;;;;-142.75;100.00;76603.75;4953423;28;19911;-69
2022/06/26 05:42:30;;;;;;;;;;;;;;;-142.75;100.00;76597.84;4954624;28;19918;-69
2022/06/26 05:44:55;;;;;;;;;;;;;;;-142.75;100.00;76584.06;4954595;28;19945;-69
2022/06/26 05:47:20;;;;;;;;;;;;;;;-142.75;100.00;76593.91;4954455;29;20005;-69
2022/06/26 05:49:46;;;;;;;;;;;;;;;-142.75;100.00;76609.66;4954150;28;20303;-68
2022/06/26 05:52:11;;;;;;;;;;;;;;;-142.75;100.00;76603.75;4954396;28;19914;-67
2022/06/26 05:54:36;;;;;;;;;;;;;;;-142.75;100.00;76595.88;4953032;28;19967;-68
2022/06/26 05:57:01;;;;;;;;;;;;;;;-142.75;100.00;76586.03;4989248;23;19935;-67
2022/06/26 05:59:26;;;;;;;;;;;;;;;-142.75;100.00;76584.06;5052337;28;20290;-67
2022/06/26 06:01:52;;;;;;;;;;;;;;;-142.75;100.00;76589.97;5054572;28;19919;-67
2022/06/26 06:04:17;;;;;;;;;;;;;;;-142.75;100.00;76582.09;5055726;28;20374;-67
2022/06/26 06:06:42;;;;;;;;;;;;;;;-142.75;100.00;76593.91;5055571;28;19959;-66
2022/06/26 06:09:07;;;;;;;;;;;;;;;-142.75;100.00;76597.84;5055344;28;19948;-67
2022/06/26 06:11:33;;;;;;;;;;;;;;;-142.75;100.00;76597.84;5055429;28;20294;-66
2022/06/26 06:13:58;;;;;;;;;;;;;;;-142.75;100.00;76593.91;5055546;28;20015;-66
2022/06/26 06:16:23;;;;;;;;;;;;;;;-142.75;100.00;76589.97;5055405;28;19932;-67
2022/06/26 06:18:48;;;;;;;;;;;;;;;-142.75;100.00;76588.00;5055213;28;19913;-67
2022/06/26 06:21:14;;;;;;;;;;;;;;;-142.75;100.00;76586.03;5055306;28;19920;-66
2022/06/26 06:23:39;;;;;;;;;;;;;;;-142.75;100.00;76603.75;5055405;28;19995;-67
2022/06/26 06:26:04;;;;;;;;;;;;;;;-142.75;100.00;76601.78;5055151;28;19913;-67
2022/06/26 06:28:29;;;;;;;;;;;;;;;-142.75;100.00;76599.81;5055065;28;19999;-67
2022/06/26 06:30:55;;;;;;;;;;;;;;;-142.75;100.00;76586.03;5055281;28;20010;-67
2022/06/26 06:33:20;;;;;;;;;;;;;;;-142.75;100.00;76584.06;5055344;28;19923;-67
2022/06/26 06:35:45;;;;;;;;;;;;;;;-142.75;100.00;76595.88;5055008;28;19917;-66
2022/06/26 06:38:10;;;;;;;;;;;;;;;-142.75;100.00;76603.75;5054547;28;19920;-67
2022/06/26 06:40:36;;;;;;;;;;;;;;;-142.75;100.00;76597.84;5054863;28;19920;-66
2022/06/26 06:43:01;;;;;;;;;;;;;;;-142.75;100.00;76589.97;5054920;28;20302;-66
2022/06/26 06:45:26;;;;;;;;;;;;;;;-142.75;100.00;76574.22;5054879;28;19913;-67
2022/06/26 06:47:52;;;;;;;;;;;;;;;-142.75;100.00;76562.41;5054476;28;20082;-66
2022/06/26 06:50:17;;;;;;;;;;;;;;;-142.75;100.00;76540.75;5054096;28;20320;-67
2022/06/26 06:52:42;;;;;;;;;;;;;;;-142.75;100.00;76536.84;5054724;28;19913;-67
2022/06/26 06:55:08;;;;;;;;;;;;;;;-142.75;100.00;76534.84;5054704;28;19913;-67
2022/06/26 06:57:33;;;;;;;;;;;;;;;-142.75;100.00;76544.69;5054240;28;19987;-67
2022/06/26 06:59:58;;;;;;;;;;;;;;;-142.75;100.00;76534.84;5054411;28;19912;-67
2022/06/26 07:02:24;;;;;;;;;;;;;;;-142.75;100.00;76527.00;5054544;28;19917;-67
2022/06/26 07:04:49;;;;;;;;;;;;;;;-142.75;100.00;76525.03;5054554;28;19943;-67
2022/06/26 07:07:14;;;;;;;;;;;;;;;-142.75;100.00;76511.25;5054475;28;19913;-66
2022/06/26 07:09:39;;;;;;;;;;;;;;;-142.75;100.00;76491.56;5054163;28;19920;-67
2022/06/26 07:12:05;;;;;;;;;;;;;;;-142.75;100.00;76483.69;5054384;28;20011;-66
2022/06/26 07:14:30;;;;;;;;;;;;;;;-142.75;100.00;76485.66;5054415;28;19978;-67
2022/06/26 07:16:55;;;;;;;;;;;;;;;-142.75;100.00;76497.47;5054241;28;20008;-66
2022/06/26 07:19:21;;;;;;;;;;;;;;;-142.75;100.00;76497.47;5054137;28;20289;-67
2022/06/26 07:21:46;;;;;;;;;;;;;;;-142.75;100.00;76497.47;5054275;28;19912;-67
2022/06/26 07:24:12;;;;;;;;;;;;;;;-142.75;100.00;76507.31;5054210;28;19948;-67
2022/06/26 07:26:38;;;;;;;;;;;;;;;-142.75;100.00;76501.41;5054051;28;19948;-68
2022/06/26 07:29:03;;;;;;;;;;;;;;;-142.75;100.00;76473.84;5053682;28;20416;-67
2022/06/26 07:31:28;;;;;;;;;;;;;;;-142.75;100.00;76454.16;5054115;28;20374;-67
2022/06/26 07:36:37;;;;;;;;;;;;;;;-142.75;100.00;76444.31;5053901;28;19924;-67
2022/06/26 07:39:03;;;;;;;;;;;;;;;-142.75;100.00;76452.19;5053342;28;19913;-67
2022/06/26 07:41:28;;;;;;;;;;;;;;;-142.75;100.00;76452.19;5053693;28;20363;-67
2022/06/26 07:43:53;;;;;;;;;;;;;;;-142.75;100.00;76446.28;5052503;28;20004;-67
2022/06/26 07:46:18;;;;;;;;;;;;;;;-142.75;100.00;76418.72;5052576;28;19913;-66
2022/06/26 07:48:44;;;;;;;;;;;;;;;-142.75;100.00;76420.69;5052341;28;19917;-66
2022/06/26 07:51:09;;;;;;;;;;;;;;;-142.75;100.00;76391.16;5052724;28;19958;-66
2022/06/26 07:53:36;;;;;;;;;;;;;;;-142.75;100.00;76365.56;5052691;28;19913;-67
2022/06/26 07:56:02;;;;;;;;;;;;;;;-142.75;100.00;76341.97;5034986;28;19917;-66
2022/06/26 07:58:27;;;;;;;;;;;;;;;-142.75;100.00;76373.44;5051946;28;19942;-65
2022/06/26 08:00:52;;;;;;;;;;;;;;;-142.75;100.00;76385.25;5052753;28;19913;-66
2022/06/26 08:03:17;;;;;;;;;;;;;;;-142.75;100.00;76393.13;5051432;28;20031;-65
2022/06/26 08:05:43;;;;;;;;;;;;;;;-142.75;100.00;76414.78;5052458;28;19955;-66
2022/06/26 08:08:08;;;;;;;;;;;;;;;-142.75;100.00;76389.19;5034186;28;19913;-65
2022/06/26 08:10:34;;;;;;;;;;;;;;;-142.75;100.00;76408.88;5052268;28;19917;-66
2022/06/26 08:12:59;;;;;;;;;;;;;;;-142.75;100.00;76381.31;5052092;28;20366;-66
2022/06/26 08:15:24;;;;;;;;;;;;;;;-142.75;100.00;76341.97;5052347;28;19982;-66
2022/06/26 08:17:49;;;;;;;;;;;;;;;-142.75;100.00;76314.41;5051768;28;19924;-64
2022/06/26 08:20:15;;;;;;;;;;;;;;;-142.75;100.00;76304.56;5052006;28;19929;-66
2022/06/26 08:22:40;;;;;;;;;;;;;;;-142.75;100.00;76296.69;5051894;28;19916;-66
2022/06/26 08:25:05;;;;;;;;;;;;;;;-142.75;100.00;76280.94;5051894;28;19916;-66
2022/06/26 08:27:31;;;;;;;;;;;;;;;-142.75;100.00;76290.78;5051844;28;19921;-66
2022/06/26 08:29:56;;;;;;;;;;;;;;;-142.75;100.00;76286.84;5051813;28;19994;-66
2022/06/26 08:32:21;;;;;;;;;;;;;;;-142.75;100.00;76306.53;5051895;28;19912;-66
2022/06/26 08:34:46;;;;;;;;;;;;;;;-142.75;100.00;76310.47;5052060;28;19919;-67
2022/06/26 08:37:12;;;;;;;;;;;;;;;-142.75;100.00;76367.53;5051576;28;20012;-66
2022/06/26 08:39:38;;;;;;;;;;;;;;;-142.75;100.00;76381.31;5051456;28;20371;-67
2022/06/26 08:42:04;;;;;;;;;;;;;;;-142.75;100.00;76389.19;5051580;28;19913;-66
2022/06/26 08:44:31;;;;;;;;;;;;;;;-142.75;100.00;76452.19;5051734;28;19913;-66
2022/06/26 08:46:57;;;;;;;;;;;;;;;-142.75;100.00;76458.09;5051654;28;19949;-66
2022/06/26 08:49:23;;;;;;;;;;;;;;;-142.75;100.00;76458.09;5052015;28;19967;-67
2022/06/26 08:51:50;;;;;;;;;;;;;;;-142.75;100.00;76471.88;5052479;28;19919;-66
2022/06/26 08:54:16;;;;;;;;;;;;;;;-142.75;100.00;76454.16;5052459;28;19919;-67
2022/06/26 08:56:44;;;;;;;;;;;;;;;-142.75;100.00;76456.13;5052298;28;19920;-66
2022/06/26 08:59:10;;;;;;;;;;;;;;;-142.75;100.00;76418.72;5052090;28;19919;-66
2022/06/26 09:01:36;;;;;;;;;;;;;;;-142.75;100.00;76345.91;5033825;28;19917;-67
2022/06/26 09:04:01;;;;;;;;;;;;;;;-142.75;100.00;76300.63;5052058;28;19924;-67
2022/06/26 09:06:27;;;;;;;;;;;;;;;-142.75;100.00;76259.28;5052204;28;19986;-67
2022/06/26 09:08:52;;;;;;;;;;;;;;;-142.75;100.00;76271.09;5051958;28;19913;-66
2022/06/26 09:11:18;;;;;;;;;;;;;;;-142.75;100.00;76237.63;5034310;28;20286;-66
2022/06/26 09:13:45;;;;;;;;;;;;;;;-142.75;100.00;76229.75;5051953;28;20286;-66
2022/06/26 09:16:10;;;;;;;;;;;;;;;-142.75;100.00;76214.00;5052203;28;19963;-67
2022/06/26 09:18:36;;;;;;;;;;;;;;;-142.75;100.00;76267.16;5052313;28;19917;-66
2022/06/26 09:21:04;;;;;;;;;;;;;;;-142.75;100.00;76314.41;5052078;28;19916;-67
2022/06/26 09:23:30;;;;;;;;;;;;;;;-142.75;100.00;76314.41;5052010;28;19913;-67
2022/06/26 09:25:55;;;;;;;;;;;;;;;-142.75;100.00;76328.19;5052002;28;20015;-67
2022/06/26 09:28:22;;;;;;;;;;;;;;;-142.75;100.00;76341.97;5051811;28;19923;-67
2022/06/26 09:30:58;;;;;;;;;;;;;;;-142.75;100.00;76306.53;5052183;28;20362;-66
2022/06/26 09:33:24;;;;;;;;;;;;;;;-142.75;100.00;76282.91;5051917;28;19919;-66
2022/06/26 09:35:50;;;;;;;;;;;;;;;-142.75;100.00;76284.88;5051933;28;19920;-67
2022/06/26 09:38:19;;;;;;;;;;;;;;;-142.75;100.00;76284.88;5051619;28;19912;-66
2022/06/26 09:40:46;;;;;;;;;;;;;;;-142.75;100.00;76263.22;5052150;28;19912;-67
2022/06/26 09:43:14;;;;;;;;;;;;;;;-142.75;100.00;76239.59;5051876;28;19917;-67
2022/06/26 09:45:40;;;;;;;;;;;;;;;-142.75;100.00;76229.75;5051977;28;20402;-67
2022/06/26 09:48:06;;;;;;;;;;;;;;;-142.75;100.00;76225.81;5051420;28;19913;-67
2022/06/26 09:50:32;;;;;;;;;;;;;;;-142.75;100.00;76194.34;5034338;28;19950;-67
2022/06/26 09:52:57;;;;;;;;;;;;;;;-142.75;100.00;76172.69;5051825;28;19913;-67
2022/06/26 09:55:22;;;;;;;;;;;;;;;-142.75;100.00;76180.56;5051895;28;19920;-67
2022/06/26 09:57:48;;;;;;;;;;;;;;;-142.75;100.00;76182.53;5051438;28;19920;-66
2022/06/26 10:00:13;;;;;;;;;;;;;;;-142.75;100.00;76204.16;5051649;28;19912;-68
2022/06/26 10:06:25;;;;;;;;;;;;;;;-142.75;100.00;76221.88;5031846;28;19920;-66
2022/06/26 10:08:28;;;;;;;;;;;;;;;-142.75;100.00;76214.00;5031138;28;19914;-67
2022/06/26 10:10:54;;;;;;;;;;;;;;;-142.75;100.00;76186.47;5031716;28;19913;-66
2022/06/26 10:13:22;;;;;;;;;;;;;;;-142.75;100.00;76188.44;5031621;28;20497;-66
2022/06/26 10:15:56;;;;;;;;;;;;;;;-142.75;100.00;76190.41;5031515;28;19913;-67
2022/06/26 10:18:24;;;;;;;;;;;;;;;-142.75;100.00;76176.63;5031375;28;19916;-67
2022/06/26 10:20:50;;;;;;;;;;;;;;;-142.75;100.00;76212.03;5031745;28;19913;-66
2022/06/26 10:23:31;;;;;;;;;;;;;;;-142.75;100.00;76251.41;5031827;28;19920;-66
2022/06/26 10:25:56;;;;;;;;;;;;;;;-142.75;100.00;76251.41;5033061;28;19913;-66
2022/06/26 10:28:21;;;;;;;;;;;;;;;-142.75;100.00;76239.59;5035162;28;20420;-67
2022/06/26 10:30:46;;;;;;;;;;;;;;;-142.75;100.00;76239.59;5035121;28;19920;-68
2022/06/26 10:33:17;;;;;;;;;;;;;;;-142.75;100.00;76265.19;5035213;28;19917;-66
2022/06/26 10:35:47;;;;;;;;;;;;;;;-142.75;100.00;76255.34;5017118;28;19917;-66
2022/06/26 10:38:19;;;;;;;;;;;;;;;-142.75;100.00;76227.78;5034677;28;19923;-67
2022/06/26 10:43:40;;;;;;;;;;;;;;;-142.75;100.00;76255.34;5035326;28;19959;-67
2022/06/26 10:46:05;;;;;;;;;;;;;;;-142.75;100.00;76265.19;5034966;28;20000;-66
2022/06/26 10:48:31;;;;;;;;;;;;;;;-142.75;100.00;76280.94;5034475;28;19990;-67
2022/06/26 10:51:03;;;;;;;;;;;;;;;-142.75;100.00;76294.72;5034766;28;19920;-66
2022/06/26 10:53:30;;;;;;;;;;;;;;;-142.75;100.00;76290.78;5035027;28;19913;-66
2022/06/26 10:55:57;;;;;;;;;;;;;;;-142.75;100.00;76278.97;5017472;28;19963;-66
2022/06/26 10:58:29;;;;;;;;;;;;;;;-142.75;100.00;76302.59;5034415;28;20318;-66
2022/06/26 11:00:58;;;;;;;;;;;;;;;-142.75;100.00;76277.00;5034886;28;19913;-66
2022/06/26 11:03:24;;;;;;;;;;;;;;;-142.75;100.00;76275.03;5034726;28;19913;-66
2022/06/26 11:05:49;;;;;;;;;;;;;;;-142.75;100.00;76288.81;5034713;28;19975;-66
2022/06/26 11:08:21;;;;;;;;;;;;;;;-142.75;100.00;76306.53;5034228;28;20374;-66
2022/06/26 11:10:46;;;;;;;;;;;;;;;-142.75;100.00;76314.41;5034668;28;19913;-66
2022/06/26 11:13:11;;;;;;;;;;;;;;;-142.75;100.00;76326.22;5017043;28;19913;-66
2022/06/26 11:15:36;;;;;;;;;;;;;;;-142.75;100.00;76338.03;5034375;28;20418;-66
2022/06/26 11:18:03;;;;;;;;;;;;;;;-142.75;100.00;76351.81;5033952;28;20020;-66
2022/06/26 11:20:49;;;;;;;;;;;;;;;-142.75;100.00;76381.31;5034225;28;19917;-66
2022/06/26 11:23:27;;;;;;;;;;;;;;;-142.75;100.00;76389.19;5034335;28;19920;-67
2022/06/26 11:26:01;;;;;;;;;;;;;;;-142.75;100.00;76381.31;5034206;28;19920;-66
2022/06/26 11:28:28;;;;;;;;;;;;;;;-142.75;100.00;76373.44;5044835;28;19923;-66
2022/06/26 11:30:53;;;;;;;;;;;;;;;-142.75;100.00;76353.78;5054074;28;19912;-66
2022/06/26 11:33:23;;;;;;;;;;;;;;;-142.75;100.00;76347.84;5054009;28;20374;-66
2022/06/26 11:35:49;;;;;;;;;;;;;;;-142.75;100.00;76334.09;5053923;28;19948;-66
2022/06/26 11:38:15;;;;;;;;;;;;;;;-142.75;100.00;76328.19;5053376;28;19955;-66
2022/06/26 11:40:41;;;;;;;;;;;;;;;-142.75;100.00;76326.22;5053837;28;19913;-66
2022/06/26 11:43:07;;;;;;;;;;;;;;;-142.75;100.00;76326.22;5053778;28;20008;-66
2022/06/26 11:45:32;;;;;;;;;;;;;;;-142.75;100.00;76320.31;5053716;28;19952;-67
2022/06/26 11:47:58;;;;;;;;;;;;;;;-142.75;100.00;76318.34;5053355;28;19999;-67
2022/06/26 11:50:27;;;;;;;;;;;;;;;-142.75;100.00;76306.53;5053688;28;19952;-66
2022/06/26 11:52:53;;;;;;;;;;;;;;;-142.75;100.00;76271.09;5053699;28;19920;-66
2022/06/26 11:55:18;;;;;;;;;;;;;;;-142.75;100.00;76259.28;5053471;28;20639;-66
2022/06/26 11:57:44;;;;;;;;;;;;;;;-142.75;100.00;76267.16;5068166;22;19960;-66
2022/06/26 12:00:10;;;;;;;;;;;;;;;-142.75;100.00;76253.38;5051657;28;20000;-67
2022/06/26 12:02:40;;;;;;;;;;;;;;;-142.75;100.00;76243.53;5052384;28;19916;-67
2022/06/26 12:05:06;;;;;;;;;;;;;;;-142.75;100.00;76192.38;5053327;28;19979;-67
2022/06/26 12:07:41;;;;;;;;;;;;;;;-142.75;100.00;76176.63;5053141;28;20371;-67
2022/06/26 12:10:07;;;;;;;;;;;;;;;-142.75;100.00;76168.75;5035154;28;19932;-68
2022/06/26 12:12:32;;;;;;;;;;;;;;;-142.75;100.00;76184.50;5053104;28;20119;-66
2022/06/26 12:14:57;;;;;;;;;;;;;;;-142.75;100.00;76180.56;5053115;28;19913;-66
2022/06/26 12:17:27;;;;;;;;;;;;;;;-142.75;100.00;76174.66;5053006;28;19916;-67
2022/06/26 12:19:53;;;;;;;;;;;;;;;-142.75;100.00;76198.28;5052679;28;19919;-67
2022/06/26 12:22:31;;;;;;;;;;;;;;;-142.75;100.00;76221.88;5052886;28;19913;-67